sensor_id;sensor_type;location;lat;lon;timestamp;pressure;altitude;pressure_sealevel;temperature;humidity
9672;BME280;4874;43.568;27.824;2022-08-11T00:01:52;98888.09;;;19.87;100.00
9672;BME280;4874;43.568;27.824;2022-08-11T00:04:24;98881.03;;;20.71;100.00
9672;BME280;4874;43.568;27.824;2022-08-11T00:06:51;98884.97;;;19.84;100.00
9672;BME280;4874;43.568;27.824;2022-08-11T00:09:21;98886.03;;;20.03;100.00
9672;BME280;4874;43.568;27.824;2022-08-11T00:11:50;98881.63;;;19.69;100.00
9672;BME280;4874;43.568;27.824;2022-08-11T00:14:20;98895.81;;;20.36;100.00
9672;BME280;4874;43.568;27.824;2022-08-11T00:17:29;98889.50;;;19.77;100.00
9672;BME280;4874;43.568;27.824;2022-08-11T00:19:49;98884.69;;;19.53;100.00
9672;BME280;4874;43.568;27.824;2022-08-11T00:22:38;98837.06;;;19.47;100.00
9672;BME280;4874;43.568;27.824;2022-08-11T00:25:36;98894.06;;;19.70;100.00
9672;BME280;4874;43.568;27.824;2022-08-11T00:28:04;98896.81;;;19.96;100.00
9672;BME280;4874;43.568;27.824;2022-08-11T00:30:38;98892.69;;;20.20;100.00
9672;BME280;4874;43.568;27.824;2022-08-11T00:33:06;98895.97;;;19.89;100.00
9672;BME280;4874;43.568;27.824;2022-08-11T00:35:34;98894.91;;;19.70;100.00
9672;BME280;4874;43.568;27.824;2022-08-11T00:38:22;98890.41;;;20.10;100.00
9672;BME280;4874;43.568;27.824;2022-08-11T00:40:56;98890.81;;;20.07;100.00
9672;BME280;4874;43.568;27.824;2022-08-11T00:51:58;98884.41;;;20.21;100.00
9672;BME280;4874;43.568;27.824;2022-08-11T01:00:15;98879.78;;;19.76;100.00
9672;BME280;4874;43.568;27.824;2022-08-11T01:03:05;98886.59;;;19.65;100.00
9672;BME280;4874;43.568;27.824;2022-08-11T01:05:50;98889.56;;;20.03;100.00
9672;BME280;4874;43.568;27.824;2022-08-11T01:11:13;98888.16;;;20.20;100.00
9672;BME280;4874;43.568;27.824;2022-08-11T01:27:43;98882.13;;;20.25;100.00
9672;BME280;4874;43.568;27.824;2022-08-11T01:42:36;98871.94;;;20.59;100.00
9672;BME280;4874;43.568;27.824;2022-08-11T01:48:25;98868.84;;;20.43;100.00
9672;BME280;4874;43.568;27.824;2022-08-11T01:53:37;98862.81;;;20.08;100.00
9672;BME280;4874;43.568;27.824;2022-08-11T01:59:13;98859.94;;;20.16;100.00
9672;BME280;4874;43.568;27.824;2022-08-11T02:01:59;98855.16;;;20.18;100.00
9672;BME280;4874;43.568;27.824;2022-08-11T02:10:02;98842.69;;;19.98;100.00
9672;BME280;4874;43.568;27.824;2022-08-11T02:16:25;98852.41;;;19.66;100.00
9672;BME280;4874;43.568;27.824;2022-08-11T02:19:03;98852.06;;;20.34;100.00
9672;BME280;4874;43.568;27.824;2022-08-11T02:27:41;98849.28;;;19.56;100.00
9672;BME280;4874;43.568;27.824;2022-08-11T02:30:14;98853.66;;;19.70;100.00
9672;BME280;4874;43.568;27.824;2022-08-11T02:36:03;98851.94;;;19.36;100.00
9672;BME280;4874;43.568;27.824;2022-08-11T02:38:33;98857.97;;;19.58;100.00
9672;BME280;4874;43.568;27.824;2022-08-11T02:41:24;98855.75;;;19.81;100.00
9672;BME280;4874;43.568;27.824;2022-08-11T02:50:22;98856.00;;;20.32;100.00
9672;BME280;4874;43.568;27.824;2022-08-11T02:53:12;98849.34;;;20.21;100.00
9672;BME280;4874;43.568;27.824;2022-08-11T02:58:50;98864.47;;;19.83;100.00
9672;BME280;4874;43.568;27.824;2022-08-11T03:01:46;98856.81;;;19.93;100.00
9672;BME280;4874;43.568;27.824;2022-08-11T03:04:36;98816.78;;;19.77;100.00
9672;BME280;4874;43.568;27.824;2022-08-11T03:07:30;98853.88;;;19.75;100.00
9672;BME280;4874;43.568;27.824;2022-08-11T03:10:12;98851.81;;;19.83;100.00
9672;BME280;4874;43.568;27.824;2022-08-11T03:12:49;98850.41;;;19.21;100.00
9672;BME280;4874;43.568;27.824;2022-08-11T03:15:51;98849.66;;;19.46;100.00
9672;BME280;4874;43.568;27.824;2022-08-11T03:19:07;98843.88;;;19.56;100.00
9672;BME280;4874;43.568;27.824;2022-08-11T03:24:30;98851.38;;;19.13;100.00
9672;BME280;4874;43.568;27.824;2022-08-11T03:30:12;98860.06;;;19.02;100.00
9672;BME280;4874;43.568;27.824;2022-08-11T03:32:50;98860.94;;;19.16;100.00
9672;BME280;4874;43.568;27.824;2022-08-11T03:35:44;98831.03;;;19.45;100.00
9672;BME280;4874;43.568;27.824;2022-08-11T03:38:15;98856.38;;;19.89;100.00
9672;BME280;4874;43.568;27.824;2022-08-11T03:40:58;98859.63;;;19.52;100.00
9672;BME280;4874;43.568;27.824;2022-08-11T04:01:19;98860.72;;;19.90;100.00
9672;BME280;4874;43.568;27.824;2022-08-11T04:18:49;98870.06;;;19.88;100.00
9672;BME280;4874;43.568;27.824;2022-08-11T04:33:01;98862.59;;;19.97;100.00
9672;BME280;4874;43.568;27.824;2022-08-11T04:56:37;98864.03;;;19.92;100.00
9672;BME280;4874;43.568;27.824;2022-08-11T05:16:59;98872.53;;;20.09;100.00
9672;BME280;4874;43.568;27.824;2022-08-11T05:19:48;98879.41;;;20.05;100.00
9672;BME280;4874;43.568;27.824;2022-08-11T05:22:34;98882.72;;;20.33;100.00
9672;BME280;4874;43.568;27.824;2022-08-11T05:25:28;98869.66;;;19.98;100.00
9672;BME280;4874;43.568;27.824;2022-08-11T05:29:00;98872.34;;;20.04;100.00
9672;BME280;4874;43.568;27.824;2022-08-11T05:31:54;98897.91;;;20.34;100.00
9672;BME280;4874;43.568;27.824;2022-08-11T05:34:47;98882.53;;;20.22;100.00
9672;BME280;4874;43.568;27.824;2022-08-11T05:40:11;98884.81;;;20.44;100.00
9672;BME280;4874;43.568;27.824;2022-08-11T05:43:02;98885.03;;;20.36;100.00
9672;BME280;4874;43.568;27.824;2022-08-11T05:46:00;98887.28;;;20.52;100.00
9672;BME280;4874;43.568;27.824;2022-08-11T05:48:46;98887.69;;;20.62;100.00
9672;BME280;4874;43.568;27.824;2022-08-11T05:51:34;98879.59;;;20.62;100.00
9672;BME280;4874;43.568;27.824;2022-08-11T05:54:22;98889.78;;;20.67;100.00
9672;BME280;4874;43.568;27.824;2022-08-11T05:57:19;98877.75;;;21.71;100.00
9672;BME280;4874;43.568;27.824;2022-08-11T06:00:07;98877.75;;;21.33;100.00
9672;BME280;4874;43.568;27.824;2022-08-11T06:02:44;98879.66;;;21.64;100.00
9672;BME280;4874;43.568;27.824;2022-08-11T06:05:12;98878.97;;;22.06;100.00
9672;BME280;4874;43.568;27.824;2022-08-11T06:07:39;98895.97;;;22.13;100.00
9672;BME280;4874;43.568;27.824;2022-08-11T06:10:13;98834.38;;;21.59;100.00
9672;BME280;4874;43.568;27.824;2022-08-11T06:12:41;98853.00;;;22.05;100.00
9672;BME280;4874;43.568;27.824;2022-08-11T06:15:10;98870.25;;;21.73;100.00
9672;BME280;4874;43.568;27.824;2022-08-11T06:17:45;98874.50;;;22.18;100.00
9672;BME280;4874;43.568;27.824;2022-08-11T06:20:13;98862.34;;;22.58;100.00
9672;BME280;4874;43.568;27.824;2022-08-11T06:22:43;98871.88;;;22.11;100.00
9672;BME280;4874;43.568;27.824;2022-08-11T06:25:14;98863.75;;;22.11;100.00
9672;BME280;4874;43.568;27.824;2022-08-11T06:27:44;98865.97;;;22.21;100.00
9672;BME280;4874;43.568;27.824;2022-08-11T06:30:11;98870.88;;;22.98;100.00
9672;BME280;4874;43.568;27.824;2022-08-11T06:32:44;98851.16;;;22.73;100.00
9672;BME280;4874;43.568;27.824;2022-08-11T06:38:37;98855.59;;;23.40;100.00
9672;BME280;4874;43.568;27.824;2022-08-11T06:44:29;98860.88;;;22.98;100.00
9672;BME280;4874;43.568;27.824;2022-08-11T06:47:06;98875.59;;;23.20;100.00
9672;BME280;4874;43.568;27.824;2022-08-11T06:49:37;98864.69;;;22.91;100.00
9672;BME280;4874;43.568;27.824;2022-08-11T06:52:33;98866.97;;;23.30;100.00
9672;BME280;4874;43.568;27.824;2022-08-11T06:55:12;98858.72;;;23.00;100.00
9672;BME280;4874;43.568;27.824;2022-08-11T06:58:21;98869.50;;;23.43;100.00
9672;BME280;4874;43.568;27.824;2022-08-11T07:01:12;98851.31;;;23.62;100.00
9672;BME280;4874;43.568;27.824;2022-08-11T07:03:45;98869.69;;;23.89;100.00
9672;BME280;4874;43.568;27.824;2022-08-11T07:15:29;98871.84;;;23.99;100.00
9672;BME280;4874;43.568;27.824;2022-08-11T07:21:52;98881.22;;;23.96;100.00
9672;BME280;4874;43.568;27.824;2022-08-11T07:24:43;98843.44;;;23.60;100.00
9672;BME280;4874;43.568;27.824;2022-08-11T07:27:36;98869.53;;;24.25;100.00
9672;BME280;4874;43.568;27.824;2022-08-11T07:30:26;98867.69;;;24.72;100.00
9672;BME280;4874;43.568;27.824;2022-08-11T07:32:58;98882.66;;;24.28;100.00
9672;BME280;4874;43.568;27.824;2022-08-11T07:35:30;98835.91;;;23.74;100.00
9672;BME280;4874;43.568;27.824;2022-08-11T07:38:03;98878.75;;;24.36;100.00
9672;BME280;4874;43.568;27.824;2022-08-11T07:40:33;98856.69;;;24.32;100.00
9672;BME280;4874;43.568;27.824;2022-08-11T07:43:02;98883.97;;;24.72;100.00
9672;BME280;4874;43.568;27.824;2022-08-11T07:45:30;98876.19;;;24.76;100.00
9672;BME280;4874;43.568;27.824;2022-08-11T07:48:16;98859.53;;;24.61;100.00
9672;BME280;4874;43.568;27.824;2022-08-11T07:51:02;98874.78;;;24.73;100.00
9672;BME280;4874;43.568;27.824;2022-08-11T07:53:50;98879.53;;;25.29;100.00
9672;BME280;4874;43.568;27.824;2022-08-11T07:56:24;98873.06;;;25.18;100.00
9672;BME280;4874;43.568;27.824;2022-08-11T07:58:53;98863.94;;;25.36;100.00
9672;BME280;4874;43.568;27.824;2022-08-11T08:01:40;98868.94;;;25.04;100.00
9672;BME280;4874;43.568;27.824;2022-08-11T08:04:26;98854.00;;;24.90;100.00
9672;BME280;4874;43.568;27.824;2022-08-11T08:07:12;98852.53;;;24.99;100.00
9672;BME280;4874;43.568;27.824;2022-08-11T08:09:58;98872.47;;;25.68;100.00
9672;BME280;4874;43.568;27.824;2022-08-11T08:12:44;98857.63;;;24.96;100.00
9672;BME280;4874;43.568;27.824;2022-08-11T08:15:29;98870.91;;;25.43;100.00
9672;BME280;4874;43.568;27.824;2022-08-11T08:18:15;98877.78;;;25.63;100.00
9672;BME280;4874;43.568;27.824;2022-08-11T08:20:53;98873.13;;;25.46;100.00
9672;BME280;4874;43.568;27.824;2022-08-11T08:23:25;98872.31;;;25.34;100.00
9672;BME280;4874;43.568;27.824;2022-08-11T08:26:08;98873.25;;;25.80;100.00
9672;BME280;4874;43.568;27.824;2022-08-11T08:28:58;98874.81;;;25.92;100.00
9672;BME280;4874;43.568;27.824;2022-08-11T08:31:47;98870.16;;;25.48;100.00
9672;BME280;4874;43.568;27.824;2022-08-11T08:34:16;98891.53;;;25.56;100.00
9672;BME280;4874;43.568;27.824;2022-08-11T08:36:46;98880.13;;;25.31;100.00
9672;BME280;4874;43.568;27.824;2022-08-11T08:39:14;98878.38;;;25.93;100.00
9672;BME280;4874;43.568;27.824;2022-08-11T08:41:48;98863.72;;;25.66;100.00
9672;BME280;4874;43.568;27.824;2022-08-11T08:44:20;98860.34;;;26.03;98.82
9672;BME280;4874;43.568;27.824;2022-08-11T08:47:09;98865.81;;;25.92;100.00
9672;BME280;4874;43.568;27.824;2022-08-11T08:49:43;98872.59;;;25.89;100.00
9672;BME280;4874;43.568;27.824;2022-08-11T08:52:18;98858.41;;;25.87;98.56
9672;BME280;4874;43.568;27.824;2022-08-11T08:54:55;98855.13;;;26.02;100.00
9672;BME280;4874;43.568;27.824;2022-08-11T08:57:23;98862.00;;;26.21;99.04
9672;BME280;4874;43.568;27.824;2022-08-11T08:59:54;98858.31;;;26.27;100.00
9672;BME280;4874;43.568;27.824;2022-08-11T09:02:25;98867.44;;;26.04;97.56
9672;BME280;4874;43.568;27.824;2022-08-11T09:05:02;98831.94;;;25.83;98.36
9672;BME280;4874;43.568;27.824;2022-08-11T09:07:30;98851.84;;;26.33;97.58
9672;BME280;4874;43.568;27.824;2022-08-11T09:10:06;98821.94;;;26.16;96.23
9672;BME280;4874;43.568;27.824;2022-08-11T09:12:34;98853.03;;;26.70;93.84
9672;BME280;4874;43.568;27.824;2022-08-11T09:15:05;98843.13;;;26.31;95.55
9672;BME280;4874;43.568;27.824;2022-08-11T09:17:42;98851.56;;;26.29;97.49
9672;BME280;4874;43.568;27.824;2022-08-11T09:22:39;98853.19;;;26.30;96.05
9672;BME280;4874;43.568;27.824;2022-08-11T09:25:45;98847.56;;;26.37;95.85
9672;BME280;4874;43.568;27.824;2022-08-11T09:28:30;98857.72;;;26.58;95.38
9672;BME280;4874;43.568;27.824;2022-08-11T09:31:00;98848.28;;;26.65;94.15
9672;BME280;4874;43.568;27.824;2022-08-11T09:33:28;98847.41;;;26.98;92.55
9672;BME280;4874;43.568;27.824;2022-08-11T09:35:56;98852.09;;;26.64;93.04
9672;BME280;4874;43.568;27.824;2022-08-11T09:38:25;98855.88;;;26.80;92.30
9672;BME280;4874;43.568;27.824;2022-08-11T09:41:15;98860.19;;;26.76;92.04
9672;BME280;4874;43.568;27.824;2022-08-11T09:43:44;98854.72;;;26.59;92.49
9672;BME280;4874;43.568;27.824;2022-08-11T09:46:30;98840.63;;;26.79;91.52
9672;BME280;4874;43.568;27.824;2022-08-11T09:48:59;98837.63;;;26.64;93.17
9672;BME280;4874;43.568;27.824;2022-08-11T09:51:30;98851.41;;;26.91;92.25
9672;BME280;4874;43.568;27.824;2022-08-11T09:53:59;98843.31;;;26.96;90.95
9672;BME280;4874;43.568;27.824;2022-08-11T09:56:32;98852.47;;;26.90;91.53
9672;BME280;4874;43.568;27.824;2022-08-11T09:59:20;98849.31;;;26.98;89.16
9672;BME280;4874;43.568;27.824;2022-08-11T10:01:56;98854.31;;;27.27;88.10
9672;BME280;4874;43.568;27.824;2022-08-11T10:04:32;98852.19;;;27.29;88.53
9672;BME280;4874;43.568;27.824;2022-08-11T10:07:03;98853.38;;;27.60;87.30
9672;BME280;4874;43.568;27.824;2022-08-11T10:09:56;98852.56;;;27.59;87.61
9672;BME280;4874;43.568;27.824;2022-08-11T10:12:33;98820.22;;;27.46;87.22
9672;BME280;4874;43.568;27.824;2022-08-11T10:15:07;98843.00;;;27.35;87.88
9672;BME280;4874;43.568;27.824;2022-08-11T10:17:56;98831.09;;;27.68;84.07
9672;BME280;4874;43.568;27.824;2022-08-11T10:20:44;98851.31;;;27.94;83.37
9672;BME280;4874;43.568;27.824;2022-08-11T10:23:16;98828.75;;;27.55;82.86
9672;BME280;4874;43.568;27.824;2022-08-11T10:26:02;98840.03;;;27.63;82.38
9672;BME280;4874;43.568;27.824;2022-08-11T10:28:48;98829.50;;;27.72;80.67
9672;BME280;4874;43.568;27.824;2022-08-11T10:31:35;98849.56;;;27.61;83.00
9672;BME280;4874;43.568;27.824;2022-08-11T10:34:23;98832.78;;;27.47;82.16
9672;BME280;4874;43.568;27.824;2022-08-11T10:36:50;98848.59;;;27.72;80.33
9672;BME280;4874;43.568;27.824;2022-08-11T10:39:18;98845.38;;;27.75;80.79
9672;BME280;4874;43.568;27.824;2022-08-11T10:41:46;98840.16;;;28.00;78.56
9672;BME280;4874;43.568;27.824;2022-08-11T10:44:41;98846.91;;;27.93;76.97
9672;BME280;4874;43.568;27.824;2022-08-11T10:47:10;98842.59;;;27.97;76.65
9672;BME280;4874;43.568;27.824;2022-08-11T10:49:57;98847.63;;;28.10;74.23
9672;BME280;4874;43.568;27.824;2022-08-11T10:52:48;98840.22;;;28.05;75.23
9672;BME280;4874;43.568;27.824;2022-08-11T10:55:35;98837.66;;;27.94;74.21
9672;BME280;4874;43.568;27.824;2022-08-11T10:58:24;98746.53;;;27.41;77.52
9672;BME280;4874;43.568;27.824;2022-08-11T11:01:10;98836.16;;;28.08;78.46
9672;BME280;4874;43.568;27.824;2022-08-11T11:03:38;98802.06;;;27.84;78.75
9672;BME280;4874;43.568;27.824;2022-08-11T11:06:09;98818.19;;;28.17;79.58
9672;BME280;4874;43.568;27.824;2022-08-11T11:09:04;98817.44;;;28.21;78.14
9672;BME280;4874;43.568;27.824;2022-08-11T11:11:36;98815.16;;;28.13;76.55
9672;BME280;4874;43.568;27.824;2022-08-11T11:14:26;98818.78;;;28.50;76.09
9672;BME280;4874;43.568;27.824;2022-08-11T11:17:34;98809.75;;;28.18;76.77
9672;BME280;4874;43.568;27.824;2022-08-11T11:20:24;98813.38;;;28.60;73.67
9672;BME280;4874;43.568;27.824;2022-08-11T11:29:06;98810.75;;;28.44;74.85
9672;BME280;4874;43.568;27.824;2022-08-11T11:36:54;98819.09;;;28.59;74.15
9672;BME280;4874;43.568;27.824;2022-08-11T11:39:26;98812.94;;;28.42;72.60
9672;BME280;4874;43.568;27.824;2022-08-11T11:41:56;98815.38;;;28.80;73.57
9672;BME280;4874;43.568;27.824;2022-08-11T11:44:24;98820.81;;;28.75;70.23
9672;BME280;4874;43.568;27.824;2022-08-11T11:46:51;98786.69;;;28.77;68.83
9672;BME280;4874;43.568;27.824;2022-08-11T11:49:22;98812.22;;;28.56;69.37
9672;BME280;4874;43.568;27.824;2022-08-11T11:51:56;98809.78;;;28.60;73.45
9672;BME280;4874;43.568;27.824;2022-08-11T11:54:26;98801.56;;;28.55;72.53
9672;BME280;4874;43.568;27.824;2022-08-11T11:56:56;98770.81;;;28.74;72.63
9672;BME280;4874;43.568;27.824;2022-08-11T11:59:26;98798.19;;;28.79;68.40
9672;BME280;4874;43.568;27.824;2022-08-11T12:02:13;98797.81;;;28.66;72.31
9672;BME280;4874;43.568;27.824;2022-08-11T12:04:43;98792.53;;;29.01;71.01
9672;BME280;4874;43.568;27.824;2022-08-11T12:07:11;98789.84;;;29.11;68.57
9672;BME280;4874;43.568;27.824;2022-08-11T12:09:57;98815.31;;;28.70;71.41
9672;BME280;4874;43.568;27.824;2022-08-11T12:12:24;98799.59;;;28.92;71.87
9672;BME280;4874;43.568;27.824;2022-08-11T12:15:10;98792.44;;;28.81;66.37
9672;BME280;4874;43.568;27.824;2022-08-11T12:17:38;98783.91;;;28.67;66.67
9672;BME280;4874;43.568;27.824;2022-08-11T12:20:06;98754.97;;;28.30;68.67
9672;BME280;4874;43.568;27.824;2022-08-11T12:22:54;98762.56;;;28.23;70.27
9672;BME280;4874;43.568;27.824;2022-08-11T12:29:06;98799.91;;;28.17;67.49
9672;BME280;4874;43.568;27.824;2022-08-11T12:31:34;98800.91;;;28.43;70.50
9672;BME280;4874;43.568;27.824;2022-08-11T12:34:10;98797.50;;;28.57;71.55
9672;BME280;4874;43.568;27.824;2022-08-11T12:36:42;98798.19;;;28.79;73.34
9672;BME280;4874;43.568;27.824;2022-08-11T12:39:12;98796.81;;;28.82;73.13
9672;BME280;4874;43.568;27.824;2022-08-11T12:41:49;98792.53;;;29.06;68.76
9672;BME280;4874;43.568;27.824;2022-08-11T12:44:35;98809.19;;;28.53;68.07
9672;BME280;4874;43.568;27.824;2022-08-11T12:47:22;98798.00;;;28.54;69.55
9672;BME280;4874;43.568;27.824;2022-08-11T12:49:50;98793.47;;;28.75;70.91
9672;BME280;4874;43.568;27.824;2022-08-11T12:52:50;98807.41;;;29.20;69.85
9672;BME280;4874;43.568;27.824;2022-08-11T12:55:22;98800.06;;;28.74;69.17
9672;BME280;4874;43.568;27.824;2022-08-11T12:58:29;98802.06;;;28.99;70.36
9672;BME280;4874;43.568;27.824;2022-08-11T13:00:56;98794.13;;;28.97;69.19
9672;BME280;4874;43.568;27.824;2022-08-11T13:03:41;98795.34;;;29.21;69.23
9672;BME280;4874;43.568;27.824;2022-08-11T13:06:27;98764.69;;;28.16;72.67
9672;BME280;4874;43.568;27.824;2022-08-11T13:08:55;98803.38;;;28.44;70.73
9672;BME280;4874;43.568;27.824;2022-08-11T13:11:26;98791.25;;;28.67;70.77
9672;BME280;4874;43.568;27.824;2022-08-11T13:14:20;98792.75;;;28.48;71.17
9672;BME280;4874;43.568;27.824;2022-08-11T13:16:47;98793.91;;;28.52;71.26
9672;BME280;4874;43.568;27.824;2022-08-11T13:19:33;98795.84;;;28.56;70.58
9672;BME280;4874;43.568;27.824;2022-08-11T13:22:02;98787.59;;;28.15;72.29
9672;BME280;4874;43.568;27.824;2022-08-11T13:24:33;98792.75;;;28.11;75.85
9672;BME280;4874;43.568;27.824;2022-08-11T13:27:01;98800.38;;;28.04;74.66
9672;BME280;4874;43.568;27.824;2022-08-11T13:29:28;98795.25;;;28.13;76.39
9672;BME280;4874;43.568;27.824;2022-08-11T13:31:57;98794.19;;;28.19;76.41
9672;BME280;4874;43.568;27.824;2022-08-11T13:34:26;98789.19;;;28.47;74.79
9672;BME280;4874;43.568;27.824;2022-08-11T13:36:56;98793.59;;;28.95;71.35
9672;BME280;4874;43.568;27.824;2022-08-11T13:39:29;98792.75;;;28.48;70.91
9672;BME280;4874;43.568;27.824;2022-08-11T13:41:58;98766.56;;;27.78;73.73
9672;BME280;4874;43.568;27.824;2022-08-11T13:44:30;98787.22;;;28.01;73.49
9672;BME280;4874;43.568;27.824;2022-08-11T13:47:01;98783.19;;;28.09;72.69
9672;BME280;4874;43.568;27.824;2022-08-11T13:49:30;98773.72;;;28.58;70.38
9672;BME280;4874;43.568;27.824;2022-08-11T13:51:58;98783.38;;;28.70;71.05
9672;BME280;4874;43.568;27.824;2022-08-11T13:54:27;98776.22;;;28.69;72.47
9672;BME280;4874;43.568;27.824;2022-08-11T13:56:56;98762.22;;;28.56;72.07
9672;BME280;4874;43.568;27.824;2022-08-11T13:59:26;98786.16;;;28.85;71.38
9672;BME280;4874;43.568;27.824;2022-08-11T14:02:00;98779.38;;;28.46;70.49
9672;BME280;4874;43.568;27.824;2022-08-11T14:04:57;98780.53;;;28.50;73.68
9672;BME280;4874;43.568;27.824;2022-08-11T14:07:33;98780.53;;;28.19;75.17
9672;BME280;4874;43.568;27.824;2022-08-11T14:10:03;98784.88;;;28.15;78.79
9672;BME280;4874;43.568;27.824;2022-08-11T14:12:33;98767.84;;;27.71;76.22
9672;BME280;4874;43.568;27.824;2022-08-11T14:15:27;98791.38;;;27.82;78.73
9672;BME280;4874;43.568;27.824;2022-08-11T14:18:01;98769.56;;;27.82;75.35
9672;BME280;4874;43.568;27.824;2022-08-11T14:20:32;98787.63;;;28.20;74.64
9672;BME280;4874;43.568;27.824;2022-08-11T14:23:27;98785.63;;;28.05;73.53
9672;BME280;4874;43.568;27.824;2022-08-11T14:25:57;98774.47;;;28.12;72.88
9672;BME280;4874;43.568;27.824;2022-08-11T14:28:43;98770.69;;;28.54;71.57
9672;BME280;4874;43.568;27.824;2022-08-11T14:31:13;98786.13;;;28.75;71.64
9672;BME280;4874;43.568;27.824;2022-08-11T14:33:40;98780.94;;;28.74;72.05
9672;BME280;4874;43.568;27.824;2022-08-11T14:36:35;98773.47;;;28.64;72.23
9672;BME280;4874;43.568;27.824;2022-08-11T14:39:07;98780.03;;;28.63;73.99
9672;BME280;4874;43.568;27.824;2022-08-11T14:41:38;98786.53;;;28.52;75.14
9672;BME280;4874;43.568;27.824;2022-08-11T14:44:35;98797.31;;;28.74;71.28
9672;BME280;4874;43.568;27.824;2022-08-11T14:47:21;98792.91;;;29.20;73.47
9672;BME280;4874;43.568;27.824;2022-08-11T14:49:53;98795.16;;;28.81;70.76
9672;BME280;4874;43.568;27.824;2022-08-11T14:52:23;98788.03;;;28.80;70.88
9672;BME280;4874;43.568;27.824;2022-08-11T14:54:51;98779.00;;;28.33;73.28
9672;BME280;4874;43.568;27.824;2022-08-11T14:57:40;98793.84;;;28.47;74.32
9672;BME280;4874;43.568;27.824;2022-08-11T15:00:19;98792.34;;;28.29;73.13
9672;BME280;4874;43.568;27.824;2022-08-11T15:02:47;98797.63;;;28.04;74.64
9672;BME280;4874;43.568;27.824;2022-08-11T15:05:58;98796.63;;;28.15;77.82
9672;BME280;4874;43.568;27.824;2022-08-11T15:08:32;98795.75;;;28.10;75.57
9672;BME280;4874;43.568;27.824;2022-08-11T15:11:19;98786.53;;;28.16;74.44
9672;BME280;4874;43.568;27.824;2022-08-11T15:14:07;98782.59;;;28.02;77.01
9672;BME280;4874;43.568;27.824;2022-08-11T15:16:36;98768.34;;;27.95;77.25
9672;BME280;4874;43.568;27.824;2022-08-11T15:19:24;98766.81;;;27.82;79.21
9672;BME280;4874;43.568;27.824;2022-08-11T15:21:51;98774.78;;;27.84;79.56
9672;BME280;4874;43.568;27.824;2022-08-11T15:24:36;98773.97;;;28.20;78.69
9672;BME280;4874;43.568;27.824;2022-08-11T15:27:16;98772.66;;;27.91;78.70
9672;BME280;4874;43.568;27.824;2022-08-11T15:30:04;98774.81;;;27.89;80.54
9672;BME280;4874;43.568;27.824;2022-08-11T15:33:01;98773.16;;;27.88;78.92
9672;BME280;4874;43.568;27.824;2022-08-11T15:35:48;98774.00;;;27.61;81.26
9672;BME280;4874;43.568;27.824;2022-08-11T15:38:40;98760.84;;;27.53;81.08
9672;BME280;4874;43.568;27.824;2022-08-11T15:41:10;98778.44;;;27.67;80.74
9672;BME280;4874;43.568;27.824;2022-08-11T15:43:58;98778.59;;;27.56;81.78
9672;BME280;4874;43.568;27.824;2022-08-11T15:46:49;98785.44;;;27.58;83.11
9672;BME280;4874;43.568;27.824;2022-08-11T15:49:23;98780.19;;;27.52;82.12
9672;BME280;4874;43.568;27.824;2022-08-11T15:52:17;98765.72;;;27.51;82.11
9672;BME280;4874;43.568;27.824;2022-08-11T15:54:46;98771.78;;;27.58;82.63
9672;BME280;4874;43.568;27.824;2022-08-11T15:57:17;98768.94;;;27.43;84.40
9672;BME280;4874;43.568;27.824;2022-08-11T16:00:06;98731.72;;;27.32;84.06
9672;BME280;4874;43.568;27.824;2022-08-11T16:02:52;98782.50;;;27.38;84.55
9672;BME280;4874;43.568;27.824;2022-08-11T16:05:23;98784.16;;;27.18;84.37
9672;BME280;4874;43.568;27.824;2022-08-11T16:08:14;98790.78;;;27.48;83.99
9672;BME280;4874;43.568;27.824;2022-08-11T16:10:42;98785.03;;;27.45;84.84
9672;BME280;4874;43.568;27.824;2022-08-11T16:13:11;98785.38;;;27.05;85.88
9672;BME280;4874;43.568;27.824;2022-08-11T16:15:53;98798.78;;;27.12;86.74
9672;BME280;4874;43.568;27.824;2022-08-11T16:18:45;98793.53;;;27.05;88.06
9672;BME280;4874;43.568;27.824;2022-08-11T16:21:20;98795.31;;;26.95;89.50
9672;BME280;4874;43.568;27.824;2022-08-11T16:23:53;98794.94;;;27.29;88.06
9672;BME280;4874;43.568;27.824;2022-08-11T16:26:22;98799.03;;;27.10;91.42
9672;BME280;4874;43.568;27.824;2022-08-11T16:29:09;98793.22;;;27.23;90.96
9672;BME280;4874;43.568;27.824;2022-08-11T16:31:37;98801.78;;;27.10;90.19
9672;BME280;4874;43.568;27.824;2022-08-11T16:34:06;98748.78;;;27.23;89.32
9672;BME280;4874;43.568;27.824;2022-08-11T16:36:55;98792.91;;;26.98;90.26
9672;BME280;4874;43.568;27.824;2022-08-11T16:39:42;98763.53;;;26.62;91.51
9672;BME280;4874;43.568;27.824;2022-08-11T16:42:09;98798.09;;;26.78;92.73
9672;BME280;4874;43.568;27.824;2022-08-11T16:45:16;98806.53;;;26.98;95.05
9672;BME280;4874;43.568;27.824;2022-08-11T16:48:20;98803.44;;;27.33;92.11
9672;BME280;4874;43.568;27.824;2022-08-11T16:50:58;98786.94;;;26.80;94.39
9672;BME280;4874;43.568;27.824;2022-08-11T16:53:30;98785.31;;;26.62;94.70
9672;BME280;4874;43.568;27.824;2022-08-11T16:56:14;98804.06;;;26.97;94.26
9672;BME280;4874;43.568;27.824;2022-08-11T16:58:54;98800.59;;;27.01;96.69
9672;BME280;4874;43.568;27.824;2022-08-11T17:04:36;98798.81;;;26.69;97.15
9672;BME280;4874;43.568;27.824;2022-08-11T17:07:23;98809.78;;;26.40;97.86
9672;BME280;4874;43.568;27.824;2022-08-11T17:10:24;98812.25;;;26.58;99.15
9672;BME280;4874;43.568;27.824;2022-08-11T17:13:22;98818.72;;;26.91;96.87
9672;BME280;4874;43.568;27.824;2022-08-11T17:15:55;98800.84;;;26.61;98.16
9672;BME280;4874;43.568;27.824;2022-08-11T17:23:49;98803.75;;;27.15;97.29
9672;BME280;4874;43.568;27.824;2022-08-11T17:26:36;98810.59;;;26.57;98.07
9672;BME280;4874;43.568;27.824;2022-08-11T17:29:32;98806.81;;;26.42;99.24
9672;BME280;4874;43.568;27.824;2022-08-11T17:32:22;98762.56;;;26.13;100.00
9672;BME280;4874;43.568;27.824;2022-08-11T17:35:21;98810.47;;;26.14;100.00
9672;BME280;4874;43.568;27.824;2022-08-11T17:40:38;98821.94;;;26.88;98.06
9672;BME280;4874;43.568;27.824;2022-08-11T17:43:07;98824.22;;;26.41;100.00
9672;BME280;4874;43.568;27.824;2022-08-11T17:45:54;98823.38;;;26.74;99.76
9672;BME280;4874;43.568;27.824;2022-08-11T17:48:40;98822.75;;;26.50;100.00
9672;BME280;4874;43.568;27.824;2022-08-11T17:51:17;98825.72;;;26.87;99.18